createdAt,value
2023-01-04T00:02:55.251Z,99872.50
2023-01-04T00:08:17.060Z,99872.50
2023-01-04T00:13:38.928Z,99862.91
2023-01-04T00:19:00.626Z,99860.88
2023-01-04T00:24:22.415Z,99857.28
2023-01-04T00:29:44.170Z,99848.81
2023-01-04T00:35:06.242Z,99828.34
2023-01-04T00:40:27.954Z,99821.53
2023-01-04T00:45:49.783Z,99810.13
2023-01-04T00:51:11.581Z,99798.69
2023-01-04T00:56:34.322Z,99800.47
2023-01-04T01:01:56.482Z,99803.88
2023-01-04T01:07:18.253Z,99801.19
2023-01-04T01:12:40.061Z,99809.13
2023-01-04T01:18:01.790Z,99814.41
2023-01-04T01:23:23.611Z,99806.06
2023-01-04T01:28:45.859Z,99806.09
2023-01-04T01:34:07.627Z,99808.66
2023-01-04T01:39:29.459Z,99822.13
2023-01-04T01:44:58.955Z,99820.25
2023-01-04T01:50:33.033Z,99825.38
2023-01-04T01:55:56.866Z,99823.69
2023-01-04T02:01:18.795Z,99812.16
2023-01-04T02:06:46.045Z,99809.13
2023-01-04T02:12:11.612Z,99807.22
2023-01-04T02:17:44.857Z,99808.28
2023-01-04T02:23:24.974Z,99790.84
2023-01-04T02:29:08.226Z,99790.22
2023-01-04T02:34:29.877Z,99779.81
2023-01-04T02:40:17.798Z,99779.66
2023-01-04T02:45:50.954Z,99759.50
2023-01-04T02:51:34.136Z,99767.31
2023-01-04T02:57:04.917Z,99762.94
2023-01-04T03:03:10.821Z,99750.88
2023-01-04T03:08:44.911Z,99745.47
2023-01-04T03:14:33.234Z,99732.47
2023-01-04T03:19:58.214Z,99728.16
2023-01-04T03:25:43.688Z,99718.47
2023-01-04T03:31:34.925Z,99712.63
2023-01-04T03:37:04.633Z,99712.44
2023-01-04T03:43:00.412Z,99717.97
2023-01-04T03:48:47.494Z,99720.16
2023-01-04T03:54:11.938Z,99714.84
2023-01-04T03:59:40.307Z,99696.72
2023-01-04T04:05:20.759Z,99698.81
2023-01-04T04:10:42.464Z,99699.44
2023-01-04T04:16:04.319Z,99698.38
2023-01-04T04:21:26.165Z,99692.84
2023-01-04T04:26:47.971Z,99697.81
2023-01-04T04:32:09.803Z,99683.78
2023-01-04T04:37:32.140Z,99676.75
2023-01-04T04:42:53.892Z,99684.53
2023-01-04T04:48:15.592Z,99677.44
2023-01-04T04:53:37.372Z,99674.47
2023-01-04T04:58:59.299Z,99659.84
2023-01-04T05:04:21.105Z,99648.09
2023-01-04T05:09:42.812Z,99650.84
2023-01-04T05:15:04.910Z,99653.03
2023-01-04T05:20:27.166Z,99648.59
2023-01-04T05:25:53.166Z,99659.78
2023-01-04T05:31:14.927Z,99649.28
2023-01-04T05:36:36.677Z,99655.47
2023-01-04T05:42:17.133Z,99643.03
2023-01-04T05:47:38.843Z,99649.88
2023-01-04T05:53:00.642Z,99643.47
2023-01-04T05:58:22.375Z,99652.06
2023-01-04T06:03:44.446Z,99634.91
2023-01-04T06:09:06.326Z,99631.53
2023-01-04T06:14:28.122Z,99630.84
2023-01-04T06:19:49.830Z,99631.88
2023-01-04T06:25:11.651Z,99624.00
2023-01-04T06:30:33.626Z,99627.81
2023-01-04T06:35:56.098Z,99625.84
2023-01-04T06:41:17.925Z,99639.69
2023-01-04T06:46:41.122Z,99627.38
2023-01-04T06:52:02.961Z,99638.47
2023-01-04T06:57:24.713Z,99633.19
2023-01-04T07:03:15.080Z,99632.16
2023-01-04T07:08:28.158Z,99632.28
2023-01-04T07:13:49.920Z,99630.44
2023-01-04T07:19:11.623Z,99619.25
2023-01-04T07:24:33.346Z,99621.63
2023-01-04T07:29:55.112Z,99619.78
2023-01-04T07:35:16.972Z,99619.09
2023-01-04T07:40:55.768Z,99621.69
2023-01-04T07:46:18.706Z,99599.00
2023-01-04T07:51:40.487Z,99588.28
2023-01-04T07:57:02.225Z,99590.97
2023-01-04T08:02:24.008Z,99592.69
2023-01-04T08:07:45.740Z,99583.16
2023-01-04T08:13:07.427Z,99576.53
2023-01-04T08:18:29.317Z,99572.53
2023-01-04T08:23:52.000Z,99558.75
2023-01-04T08:29:14.118Z,99568.91
2023-01-04T08:34:35.922Z,99558.31
2023-01-04T08:39:58.095Z,99556.25
2023-01-04T08:45:19.818Z,99545.88
2023-01-04T08:50:41.578Z,99526.75
2023-01-04T08:56:03.522Z,99509.88
2023-01-04T09:01:25.377Z,99507.84
2023-01-04T09:06:47.229Z,99502.31
2023-01-04T09:12:09.516Z,99508.94
2023-01-04T09:17:31.317Z,99518.97
2023-01-04T09:22:53.349Z,99520.00
2023-01-04T09:28:15.215Z,99516.94
2023-01-04T09:34:11.954Z,99530.66
2023-01-04T09:39:22.997Z,99543.75
2023-01-04T09:45:23.070Z,99524.66
2023-01-04T09:50:56.087Z,99527.97
2023-01-04T09:56:26.414Z,99527.66
2023-01-04T10:01:53.815Z,99521.66
2023-01-04T10:07:31.180Z,99501.50
2023-01-04T10:13:10.904Z,99495.19
2023-01-04T10:19:29.705Z,99487.88
2023-01-04T10:24:58.504Z,99466.94
2023-01-04T10:30:48.561Z,99465.75
2023-01-04T10:36:24.467Z,99476.06
2023-01-04T10:42:25.111Z,99458.66
2023-01-04T10:48:16.102Z,99461.88
2023-01-04T10:53:54.155Z,99444.22
2023-01-04T10:59:27.828Z,99454.34
2023-01-04T11:04:56.052Z,99449.75
2023-01-04T11:10:31.640Z,99441.59
2023-01-04T11:15:54.085Z,99437.72
2023-01-04T11:21:21.446Z,99426.38
2023-01-04T11:26:45.238Z,99421.03
2023-01-04T11:32:30.599Z,99401.78
2023-01-04T11:38:11.159Z,99400.63
2023-01-04T11:43:37.820Z,99406.53
2023-01-04T11:49:00.327Z,99395.25
2023-01-04T11:54:22.963Z,99390.22
2023-01-04T11:59:44.762Z,99389.00
2023-01-04T12:05:22.758Z,99389.97
2023-01-04T12:10:50.403Z,99402.50
2023-01-04T12:16:51.350Z,99392.00
2023-01-04T12:22:24.764Z,99383.09
2023-01-04T12:27:51.461Z,99374.50
2023-01-04T12:33:31.500Z,99375.75
2023-01-04T12:39:02.902Z,99365.94
2023-01-04T12:44:52.257Z,99358.69
2023-01-04T12:50:24.948Z,99353.75
2023-01-04T12:55:55.514Z,99350.78
2023-01-04T13:01:24.568Z,99340.25
2023-01-04T13:06:47.777Z,99333.19
2023-01-04T13:12:36.120Z,99326.13
2023-01-04T13:17:58.050Z,99319.59
2023-01-04T13:23:19.999Z,99297.75
2023-01-04T13:28:42.144Z,99304.41
2023-01-04T13:34:03.881Z,99298.38
2023-01-04T13:39:25.757Z,99297.47
2023-01-04T13:45:20.124Z,99290.38
2023-01-04T13:50:47.396Z,99279.81
2023-01-04T13:56:20.937Z,99286.44
2023-01-04T14:01:50.833Z,99275.97
2023-01-04T14:07:18.767Z,99261.97
2023-01-04T14:12:45.219Z,99272.06
2023-01-04T14:18:26.180Z,99273.97
2023-01-04T14:23:47.999Z,99266.34
2023-01-04T14:29:22.808Z,99256.44
2023-01-04T14:34:44.616Z,99259.84
2023-01-04T14:40:24.707Z,99257.97
2023-01-04T14:45:46.444Z,99266.59
2023-01-04T14:51:08.641Z,99265.91
2023-01-04T14:56:30.425Z,99251.06
2023-01-04T15:01:53.287Z,99241.47
2023-01-04T15:07:33.690Z,99230.44
2023-01-04T15:12:57.663Z,99225.53
2023-01-04T15:18:19.376Z,99231.69
2023-01-04T15:23:41.271Z,99217.00
2023-01-04T15:29:04.299Z,99193.50
2023-01-04T15:34:26.037Z,99194.72
2023-01-04T15:39:48.226Z,99193.34
2023-01-04T15:45:10.153Z,99183.97
2023-01-04T15:50:36.484Z,99181.19
2023-01-04T15:56:05.238Z,99184.81
2023-01-04T16:01:27.110Z,99183.88
2023-01-04T16:06:48.970Z,99192.66
2023-01-04T16:12:29.433Z,99179.66
2023-01-04T16:17:51.266Z,99182.03
2023-01-04T16:23:12.997Z,99179.50
2023-01-04T16:28:35.314Z,99169.56
2023-01-04T16:33:57.188Z,99174.13
2023-01-04T16:39:19.606Z,99159.28
2023-01-04T16:44:41.459Z,99151.34
2023-01-04T16:50:03.350Z,99147.13
2023-01-04T16:55:25.216Z,99145.13
2023-01-04T17:00:47.027Z,99151.13
2023-01-04T17:06:15.025Z,99160.59
2023-01-04T17:12:19.163Z,99149.88
2023-01-04T17:17:19.683Z,99137.66
2023-01-04T17:22:41.434Z,99140.94
2023-01-04T17:28:03.202Z,99135.56
2023-01-04T17:33:25.511Z,99131.34
2023-01-04T17:38:47.851Z,99113.84
2023-01-04T17:44:10.801Z,99120.53
2023-01-04T17:49:32.769Z,99119.75
2023-01-04T17:54:54.596Z,99116.31
2023-01-04T18:00:16.611Z,99119.63
2023-01-04T18:05:51.233Z,99107.78
2023-01-04T18:11:14.992Z,99114.88
2023-01-04T18:16:56.530Z,99103.63
2023-01-04T18:22:18.826Z,99095.00
2023-01-04T18:27:40.638Z,99089.47
2023-01-04T18:33:02.797Z,99099.94
2023-01-04T18:38:24.592Z,99101.63
2023-01-04T18:44:13.361Z,99095.59
2023-01-04T18:49:35.725Z,99103.69
2023-01-04T18:54:57.447Z,99105.06
2023-01-04T19:00:19.342Z,99099.75
2023-01-04T19:05:41.439Z,99108.56
2023-01-04T19:11:03.448Z,99105.16
2023-01-04T19:16:29.478Z,99107.00
2023-01-04T19:21:51.339Z,99104.53
2023-01-04T19:27:13.179Z,99115.78
2023-01-04T19:32:35.033Z,99110.72
2023-01-04T19:37:57.365Z,99107.00
2023-01-04T19:43:19.303Z,99128.78
2023-01-04T19:48:41.416Z,99133.66
2023-01-04T19:54:03.301Z,99149.19
2023-01-04T19:59:25.248Z,99152.75
2023-01-04T20:04:47.004Z,99157.81
2023-01-04T20:10:14.056Z,99155.19
2023-01-04T20:15:40.585Z,99153.56
2023-01-04T20:21:06.064Z,99157.09
2023-01-04T20:26:28.027Z,99158.50
2023-01-04T20:31:50.036Z,99156.72
2023-01-04T20:37:11.826Z,99156.44
2023-01-04T20:42:53.108Z,99167.06
2023-01-04T20:48:15.733Z,99153.41
2023-01-04T20:53:37.866Z,99154.41
2023-01-04T20:59:00.045Z,99156.34
2023-01-04T21:04:21.769Z,99153.03
2023-01-04T21:09:43.519Z,99160.50
2023-01-04T21:15:06.663Z,99159.59
2023-01-04T21:20:28.798Z,99163.56
2023-01-04T21:25:51.062Z,99158.56
2023-01-04T21:31:16.915Z,99155.91
2023-01-04T21:36:38.704Z,99152.94
2023-01-04T21:42:00.532Z,99145.03
2023-01-04T21:47:22.330Z,99134.56
2023-01-04T21:52:45.180Z,99138.09
2023-01-04T21:58:06.955Z,99123.25
2023-01-04T22:03:28.724Z,99127.63
2023-01-04T22:08:51.462Z,99116.06
2023-01-04T22:14:13.175Z,99108.16
2023-01-04T22:19:34.980Z,99101.53
2023-01-04T22:24:57.406Z,99089.13
2023-01-04T22:30:19.224Z,99077.47
2023-01-04T22:35:41.117Z,99076.38
2023-01-04T22:41:13.389Z,99075.63
2023-01-04T22:46:35.795Z,99082.44
2023-01-04T22:51:57.903Z,99084.84
2023-01-04T22:57:19.626Z,99068.19
2023-01-04T23:02:41.603Z,99059.44
2023-01-04T23:08:03.543Z,99046.09
2023-01-04T23:13:25.316Z,99044.16
2023-01-04T23:18:47.125Z,99034.75
2023-01-04T23:24:13.106Z,99032.06
2023-01-04T23:29:34.847Z,99029.53
2023-01-04T23:34:56.546Z,99026.84
2023-01-04T23:40:18.264Z,99019.56
2023-01-04T23:45:40.040Z,99022.38
2023-01-04T23:51:01.808Z,99027.19
2023-01-04T23:56:23.572Z,99000.94
